createdAt,value
2022-10-09T00:01:10.141Z,12.42
2022-10-09T00:03:38.660Z,12.47
2022-10-09T00:06:07.486Z,12.51
2022-10-09T00:08:35.197Z,12.53
2022-10-09T00:11:14.444Z,12.52
2022-10-09T00:13:40.966Z,12.51
2022-10-09T00:16:12.359Z,12.47
2022-10-09T00:18:40.143Z,12.44
2022-10-09T00:21:24.827Z,12.39
2022-10-09T00:23:57.595Z,12.32
2022-10-09T00:26:24.686Z,12.26
2022-10-09T00:28:51.619Z,12.22
2022-10-09T00:31:18.623Z,12.15
2022-10-09T00:33:51.463Z,12.08
2022-10-09T00:36:20.707Z,12.03
2022-10-09T00:38:47.766Z,12.00
2022-10-09T00:41:17.173Z,11.98
2022-10-09T00:44:02.125Z,11.95
2022-10-09T00:46:51.333Z,11.93
2022-10-09T00:49:33.807Z,11.88
2022-10-09T00:52:03.286Z,11.82
2022-10-09T00:54:39.662Z,11.78
2022-10-09T00:57:06.939Z,11.75
2022-10-09T00:59:33.689Z,11.74
2022-10-09T01:02:00.364Z,11.72
2022-10-09T01:04:27.567Z,11.68
2022-10-09T01:07:18.430Z,11.67
2022-10-09T01:09:54.645Z,11.65
2022-10-09T01:12:53.797Z,11.63
2022-10-09T01:15:21.269Z,11.66
2022-10-09T01:18:07.084Z,11.68
2022-10-09T01:20:56.705Z,11.73
2022-10-09T01:24:17.582Z,11.76
2022-10-09T01:27:00.306Z,11.78
2022-10-09T01:29:32.216Z,11.76
2022-10-09T01:32:01.477Z,11.75
2022-10-09T01:34:52.590Z,11.74
2022-10-09T01:37:21.183Z,11.71
2022-10-09T01:39:49.165Z,11.66
2022-10-09T01:42:18.187Z,11.63
2022-10-09T01:44:45.862Z,11.60
2022-10-09T01:47:17.896Z,11.57
2022-10-09T01:49:50.224Z,11.55
2022-10-09T01:52:38.040Z,11.54
2022-10-09T01:55:18.931Z,11.55
2022-10-09T01:57:52.287Z,11.55
2022-10-09T02:00:19.518Z,11.57
2022-10-09T02:02:48.676Z,11.57
2022-10-09T02:05:21.182Z,11.57
2022-10-09T02:07:47.948Z,11.54
2022-10-09T02:10:16.832Z,11.51
2022-10-09T02:12:53.143Z,11.44
2022-10-09T02:15:22.479Z,11.40
2022-10-09T02:17:53.809Z,11.34
2022-10-09T02:20:30.252Z,11.30
2022-10-09T02:22:58.509Z,11.26
2022-10-09T02:25:29.261Z,11.21
2022-10-09T02:27:56.590Z,11.17
2022-10-09T02:30:26.229Z,11.13
2022-10-09T02:32:54.418Z,11.11
2022-10-09T02:35:25.054Z,11.08
2022-10-09T02:37:51.510Z,11.06
2022-10-09T02:40:17.976Z,11.07
2022-10-09T02:42:44.445Z,11.04
2022-10-09T02:45:15.041Z,11.03
2022-10-09T02:47:41.492Z,11.03
2022-10-09T02:50:08.497Z,11.02
2022-10-09T02:52:34.987Z,10.99
2022-10-09T02:55:01.499Z,10.99
2022-10-09T02:57:27.934Z,10.98
2022-10-09T02:59:54.388Z,10.98
2022-10-09T03:02:20.950Z,10.96
2022-10-09T03:04:49.309Z,10.95
2022-10-09T03:07:15.807Z,10.95
2022-10-09T03:09:42.814Z,10.95
2022-10-09T03:12:09.268Z,10.98
2022-10-09T03:14:37.303Z,10.97
2022-10-09T03:17:03.868Z,10.96
2022-10-09T03:19:30.315Z,10.93
2022-10-09T03:21:56.836Z,10.90
2022-10-09T03:24:27.761Z,10.86
2022-10-09T03:26:54.359Z,10.81
2022-10-09T03:29:20.916Z,10.78
2022-10-09T03:31:52.376Z,10.76
2022-10-09T03:34:23.866Z,10.75
2022-10-09T03:36:50.362Z,10.73
2022-10-09T03:39:16.811Z,10.72
2022-10-09T03:41:43.294Z,10.70
2022-10-09T03:44:12.848Z,10.69
2022-10-09T03:46:39.387Z,10.65
2022-10-09T03:49:05.983Z,10.61
2022-10-09T03:51:32.494Z,10.56
2022-10-09T03:54:00.304Z,10.52
2022-10-09T03:56:26.811Z,10.47
2022-10-09T03:58:53.444Z,10.43
2022-10-09T04:01:19.970Z,10.43
2022-10-09T04:03:48.393Z,10.42
2022-10-09T04:06:15.059Z,10.44
2022-10-09T04:08:41.538Z,10.42
2022-10-09T04:11:08.025Z,10.40
2022-10-09T04:13:34.525Z,10.40
2022-10-09T04:16:02.254Z,10.39
2022-10-09T04:18:28.768Z,10.39
2022-10-09T04:20:56.759Z,10.40
2022-10-09T04:23:26.042Z,10.39
2022-10-09T04:25:54.845Z,10.35
2022-10-09T04:28:23.254Z,10.31
2022-10-09T04:30:49.804Z,10.26
2022-10-09T04:33:16.298Z,10.23
2022-10-09T04:35:46.758Z,10.18
2022-10-09T04:38:13.227Z,10.15
2022-10-09T04:40:39.664Z,10.11
2022-10-09T04:43:06.307Z,10.10
2022-10-09T04:45:32.975Z,10.09
2022-10-09T04:47:59.636Z,10.09
2022-10-09T04:50:26.086Z,10.11
2022-10-09T04:52:58.482Z,10.10
2022-10-09T04:55:26.035Z,10.12
2022-10-09T04:57:52.517Z,10.14
2022-10-09T05:00:19.239Z,10.15
2022-10-09T05:02:45.941Z,10.16
2022-10-09T05:05:14.325Z,10.16
2022-10-09T05:07:40.782Z,10.16
2022-10-09T05:10:07.782Z,10.14
2022-10-09T05:12:34.434Z,10.14
2022-10-09T05:15:00.887Z,10.13
2022-10-09T05:17:27.928Z,10.13
2022-10-09T05:19:54.450Z,10.11
2022-10-09T05:22:20.924Z,10.11
2022-10-09T05:24:51.860Z,10.09
2022-10-09T05:27:18.387Z,10.09
2022-10-09T05:29:44.813Z,10.07
2022-10-09T05:32:11.335Z,10.05
2022-10-09T05:34:40.962Z,10.05
2022-10-09T05:37:07.546Z,10.04
2022-10-09T05:39:35.913Z,10.02
2022-10-09T05:42:02.436Z,10.01
2022-10-09T05:44:33.200Z,9.99
2022-10-09T05:46:59.714Z,9.98
2022-10-09T05:49:26.426Z,9.97
2022-10-09T05:51:54.565Z,9.95
2022-10-09T05:54:21.252Z,9.94
2022-10-09T05:56:47.853Z,9.92
2022-10-09T05:59:19.480Z,9.90
2022-10-09T06:01:49.132Z,9.88
2022-10-09T06:04:21.289Z,9.87
2022-10-09T06:06:48.715Z,9.87
2022-10-09T06:09:25.468Z,9.85
2022-10-09T06:11:54.961Z,9.85
2022-10-09T06:14:24.413Z,9.84
2022-10-09T06:16:51.226Z,9.83
2022-10-09T06:19:19.784Z,9.83
2022-10-09T06:21:47.680Z,9.84
2022-10-09T06:24:23.272Z,9.86
2022-10-09T06:26:53.720Z,9.87
2022-10-09T06:29:20.354Z,9.89
2022-10-09T06:31:46.892Z,9.92
2022-10-09T06:34:16.725Z,9.96
2022-10-09T06:36:44.250Z,9.95
2022-10-09T06:39:11.111Z,9.92
2022-10-09T06:41:37.601Z,9.89
2022-10-09T06:44:24.171Z,9.86
2022-10-09T06:46:50.648Z,9.84
2022-10-09T06:49:17.197Z,9.82
2022-10-09T06:51:43.718Z,9.81
2022-10-09T06:54:15.083Z,9.79
2022-10-09T06:56:41.622Z,9.81
2022-10-09T06:59:10.169Z,9.85
2022-10-09T07:01:36.638Z,9.91
2022-10-09T07:04:07.506Z,9.99
2022-10-09T07:06:38.043Z,10.14
2022-10-09T07:09:07.448Z,10.30
2022-10-09T07:11:43.236Z,10.45
2022-10-09T07:14:13.151Z,10.65
2022-10-09T07:16:44.465Z,10.87
2022-10-09T07:19:12.691Z,11.11
2022-10-09T07:21:42.110Z,11.39
2022-10-09T07:24:12.824Z,11.68
2022-10-09T07:26:42.943Z,11.98
2022-10-09T07:29:11.232Z,12.28
2022-10-09T07:31:38.488Z,12.53
2022-10-09T07:34:09.961Z,12.75
2022-10-09T07:36:36.662Z,12.91
2022-10-09T07:39:04.448Z,13.06
2022-10-09T07:41:31.373Z,13.19
2022-10-09T07:43:59.673Z,13.34
2022-10-09T07:46:32.139Z,13.43
2022-10-09T07:48:59.843Z,13.52
2022-10-09T07:51:29.050Z,13.59
2022-10-09T07:53:57.601Z,13.67
2022-10-09T07:56:32.336Z,13.75
2022-10-09T07:59:01.193Z,13.90
2022-10-09T08:01:29.382Z,14.09
2022-10-09T08:04:01.384Z,14.31
2022-10-09T08:06:28.432Z,14.50
2022-10-09T08:08:57.005Z,14.69
2022-10-09T08:11:25.529Z,14.88
2022-10-09T08:13:56.498Z,15.07
2022-10-09T08:16:24.281Z,15.22
2022-10-09T08:18:55.127Z,15.44
2022-10-09T08:21:21.577Z,15.65
2022-10-09T08:24:09.181Z,15.81
2022-10-09T08:26:35.660Z,15.92
2022-10-09T08:29:04.838Z,16.04
2022-10-09T08:31:32.283Z,16.17
2022-10-09T08:34:02.638Z,16.35
2022-10-09T08:36:29.769Z,16.53
2022-10-09T08:38:56.340Z,16.73
2022-10-09T08:41:52.039Z,16.90
2022-10-09T08:44:39.178Z,17.12
2022-10-09T08:47:36.198Z,17.32
2022-10-09T08:50:43.977Z,17.48
2022-10-09T08:53:33.597Z,17.63
2022-10-09T08:56:06.322Z,17.73
2022-10-09T08:58:34.634Z,17.82
2022-10-09T09:01:12.625Z,17.91
2022-10-09T09:04:00.875Z,18.06
2022-10-09T09:06:47.445Z,18.19
2022-10-09T09:09:30.367Z,18.32
2022-10-09T09:12:17.762Z,18.37
2022-10-09T09:15:01.281Z,18.43
2022-10-09T09:17:27.695Z,18.49
2022-10-09T09:20:17.255Z,18.59
2022-10-09T09:22:48.738Z,18.67
2022-10-09T09:25:21.444Z,18.77
2022-10-09T09:27:48.699Z,18.86
2022-10-09T09:30:28.438Z,18.95
2022-10-09T09:33:04.752Z,19.06
2022-10-09T09:35:55.569Z,19.20
2022-10-09T09:38:22.057Z,19.35
2022-10-09T09:40:50.662Z,19.50
2022-10-09T09:43:23.966Z,19.64
2022-10-09T09:45:55.595Z,19.78
2022-10-09T09:48:33.749Z,19.93
2022-10-09T09:51:23.527Z,20.05
2022-10-09T09:53:57.543Z,20.14
2022-10-09T09:59:37.828Z,20.33
2022-10-09T10:02:14.549Z,20.41
2022-10-09T10:04:58.171Z,20.51
2022-10-09T10:07:38.922Z,20.59
2022-10-09T10:10:15.213Z,20.67
2022-10-09T10:12:48.310Z,20.76
2022-10-09T10:15:22.378Z,20.90
2022-10-09T10:17:54.982Z,21.02
2022-10-09T10:20:21.577Z,21.14
2022-10-09T10:22:53.840Z,21.24
2022-10-09T10:25:24.737Z,21.34
2022-10-09T10:27:57.466Z,21.47
2022-10-09T10:30:24.091Z,21.56
2022-10-09T10:33:10.076Z,21.64
2022-10-09T10:35:39.915Z,21.72
2022-10-09T10:38:31.101Z,21.81
2022-10-09T10:41:03.549Z,21.94
2022-10-09T10:43:42.017Z,22.00
2022-10-09T10:46:17.262Z,22.09
2022-10-09T10:48:46.966Z,22.18
2022-10-09T10:51:42.936Z,22.30
2022-10-09T10:54:39.331Z,22.36
2022-10-09T10:57:12.463Z,22.46
2022-10-09T10:59:46.216Z,22.55
2022-10-09T11:02:41.128Z,22.66
2022-10-09T11:05:25.997Z,22.81
2022-10-09T11:08:29.913Z,22.90
2022-10-09T11:11:33.584Z,23.03
2022-10-09T11:14:04.682Z,23.14
2022-10-09T11:16:56.489Z,23.22
2022-10-09T11:19:41.706Z,23.37
2022-10-09T11:22:27.439Z,23.47
2022-10-09T11:25:14.687Z,23.55
2022-10-09T11:27:55.689Z,23.62
2022-10-09T11:30:22.492Z,23.69
2022-10-09T11:33:24.809Z,23.73
2022-10-09T11:36:02.008Z,23.80
2022-10-09T11:38:36.636Z,23.79
2022-10-09T11:41:07.363Z,23.82
2022-10-09T11:43:42.976Z,23.91
2022-10-09T11:46:25.762Z,23.99
2022-10-09T11:49:12.662Z,24.02
2022-10-09T11:52:04.211Z,24.06
2022-10-09T11:54:35.192Z,24.09
2022-10-09T11:57:06.314Z,24.12
2022-10-09T11:59:42.014Z,24.21
2022-10-09T12:02:27.748Z,24.31
2022-10-09T12:04:59.322Z,24.33
2022-10-09T12:07:27.850Z,24.32
2022-10-09T12:10:00.362Z,24.33
2022-10-09T12:12:26.823Z,24.39
2022-10-09T12:14:56.596Z,24.44
2022-10-09T12:17:23.002Z,24.50
2022-10-09T12:20:00.793Z,24.54
2022-10-09T12:23:25.325Z,24.55
2022-10-09T12:25:48.887Z,24.58
2022-10-09T12:28:30.566Z,24.61
2022-10-09T12:31:00.733Z,24.64
2022-10-09T12:33:36.730Z,24.66
2022-10-09T12:36:11.075Z,24.69
2022-10-09T12:38:37.613Z,24.76
2022-10-09T12:41:06.978Z,24.79
2022-10-09T12:43:34.513Z,24.77
2022-10-09T12:46:02.134Z,24.80
2022-10-09T12:48:35.434Z,24.86
2022-10-09T12:51:01.927Z,24.93
2022-10-09T12:53:29.006Z,24.96
2022-10-09T12:56:00.451Z,25.00
2022-10-09T12:58:32.129Z,25.02
2022-10-09T13:01:05.238Z,25.06
2022-10-09T13:03:37.099Z,25.02
2022-10-09T13:06:26.239Z,25.00
2022-10-09T13:08:57.060Z,24.99
2022-10-09T13:11:26.463Z,24.98
2022-10-09T13:13:55.556Z,25.02
2022-10-09T13:16:23.762Z,25.02
2022-10-09T13:18:57.151Z,25.01
2022-10-09T13:21:29.131Z,24.98
2022-10-09T13:24:10.811Z,24.96
2022-10-09T13:26:39.552Z,24.97
2022-10-09T13:29:07.361Z,24.99
2022-10-09T13:31:36.714Z,25.01
2022-10-09T13:34:12.322Z,25.00
2022-10-09T13:36:39.049Z,25.02
2022-10-09T13:39:05.585Z,25.06
2022-10-09T13:41:33.664Z,25.08
2022-10-09T13:44:01.892Z,25.07
2022-10-09T13:46:28.517Z,25.05
2022-10-09T13:48:54.998Z,24.99
2022-10-09T13:51:21.615Z,24.99
2022-10-09T13:53:56.831Z,25.00
2022-10-09T13:56:24.083Z,24.96
2022-10-09T13:58:50.589Z,24.88
2022-10-09T14:01:17.393Z,24.77
2022-10-09T14:03:48.107Z,24.68
2022-10-09T14:06:14.624Z,24.65
2022-10-09T14:08:41.160Z,24.59
2022-10-09T14:11:07.754Z,24.56
2022-10-09T14:13:34.288Z,24.54
2022-10-09T14:16:05.580Z,24.48
2022-10-09T14:18:32.126Z,24.45
2022-10-09T14:20:58.569Z,24.47
2022-10-09T14:23:25.266Z,24.49
2022-10-09T14:25:51.739Z,24.49
2022-10-09T14:28:18.496Z,24.48
2022-10-09T14:30:45.117Z,24.46
2022-10-09T14:33:12.835Z,24.42
2022-10-09T14:35:39.635Z,24.40
2022-10-09T14:38:06.150Z,24.37
2022-10-09T14:40:32.662Z,24.31
2022-10-09T14:42:59.114Z,24.25
2022-10-09T14:45:25.913Z,24.20
2022-10-09T14:47:52.388Z,24.11
2022-10-09T14:50:18.866Z,24.02
2022-10-09T14:52:45.322Z,23.95
2022-10-09T14:55:12.879Z,23.84
2022-10-09T14:57:39.375Z,23.75
2022-10-09T15:00:06.518Z,23.67
2022-10-09T15:02:33.088Z,23.61
2022-10-09T15:05:00.837Z,23.51
2022-10-09T15:07:28.130Z,23.41
2022-10-09T15:09:56.815Z,23.31
2022-10-09T15:12:23.450Z,23.20
2022-10-09T15:14:49.927Z,23.09
2022-10-09T15:17:16.401Z,23.00
2022-10-09T15:19:42.854Z,22.91
2022-10-09T15:22:09.333Z,22.81
2022-10-09T15:24:40.022Z,22.71
2022-10-09T15:27:06.481Z,22.64
2022-10-09T15:29:32.926Z,22.54
2022-10-09T15:31:59.392Z,22.42
2022-10-09T15:34:30.749Z,22.35
2022-10-09T15:36:57.203Z,22.29
2022-10-09T15:39:23.737Z,22.20
2022-10-09T15:41:50.229Z,22.13
2022-10-09T15:44:20.609Z,22.05
2022-10-09T15:46:48.381Z,21.99
2022-10-09T15:49:15.021Z,21.93
2022-10-09T15:51:41.795Z,21.85
2022-10-09T15:54:11.030Z,21.76
2022-10-09T15:56:39.908Z,21.71
2022-10-09T15:59:07.582Z,21.63
2022-10-09T16:01:34.199Z,21.58
2022-10-09T16:04:03.746Z,21.53
2022-10-09T16:06:30.468Z,21.51
2022-10-09T16:08:58.231Z,21.47
2022-10-09T16:11:26.640Z,21.38
2022-10-09T16:13:59.080Z,21.31
2022-10-09T16:16:27.267Z,21.22
2022-10-09T16:18:54.865Z,21.16
2022-10-09T16:21:25.539Z,21.08
2022-10-09T16:23:58.804Z,20.99
2022-10-09T16:26:29.014Z,20.94
2022-10-09T16:28:55.560Z,20.89
2022-10-09T16:31:28.154Z,20.83
2022-10-09T16:33:58.395Z,20.74
2022-10-09T16:36:24.934Z,20.69
2022-10-09T16:38:51.414Z,20.66
2022-10-09T16:41:20.604Z,20.61
2022-10-09T16:43:51.533Z,20.57
2022-10-09T16:49:02.691Z,20.39
2022-10-09T16:51:35.850Z,20.29
2022-10-09T16:54:05.424Z,20.18
2022-10-09T16:56:35.430Z,20.07
2022-10-09T16:59:08.865Z,19.95
2022-10-09T17:01:37.654Z,19.85
2022-10-09T17:04:05.856Z,19.72
2022-10-09T17:06:32.417Z,19.61
2022-10-09T17:08:59.483Z,19.49
2022-10-09T17:11:28.085Z,19.39
2022-10-09T17:13:59.214Z,19.26
2022-10-09T17:16:28.941Z,19.17
2022-10-09T17:18:55.712Z,19.07
2022-10-09T17:21:22.558Z,19.00
2022-10-09T17:23:57.856Z,18.91
2022-10-09T17:26:25.358Z,18.83
2022-10-09T17:28:52.613Z,18.78
2022-10-09T17:31:21.868Z,18.67
2022-10-09T17:33:51.251Z,18.57
2022-10-09T17:36:20.243Z,18.45
2022-10-09T17:38:48.363Z,18.35
2022-10-09T17:41:17.280Z,18.28
2022-10-09T17:43:51.368Z,18.22
2022-10-09T17:46:19.046Z,18.14
2022-10-09T17:48:52.102Z,18.07
2022-10-09T17:51:34.486Z,18.00
2022-10-09T17:54:09.532Z,17.94
2022-10-09T17:56:39.178Z,17.86
2022-10-09T17:59:06.012Z,17.81
2022-10-09T18:01:32.604Z,17.74
2022-10-09T18:04:03.905Z,17.70
2022-10-09T18:06:33.522Z,17.66
2022-10-09T18:09:00.694Z,17.62
2022-10-09T18:11:28.437Z,17.56
2022-10-09T18:13:59.039Z,17.49
2022-10-09T18:16:35.348Z,17.45
2022-10-09T18:19:06.099Z,17.40
2022-10-09T18:21:34.352Z,17.37
2022-10-09T18:24:02.734Z,17.34
2022-10-09T18:26:29.364Z,17.34
2022-10-09T18:28:55.850Z,17.33
2022-10-09T18:31:23.705Z,17.35
2022-10-09T18:33:54.398Z,17.34
2022-10-09T18:36:25.789Z,17.33
2022-10-09T18:38:54.946Z,17.33
2022-10-09T18:41:23.461Z,17.31
2022-10-09T18:43:54.241Z,17.28
2022-10-09T18:46:25.593Z,17.27
2022-10-09T18:48:53.959Z,17.26
2022-10-09T18:51:23.207Z,17.25
2022-10-09T18:53:59.863Z,17.22
2022-10-09T18:56:29.198Z,17.19
2022-10-09T18:58:55.760Z,17.16
2022-10-09T19:01:22.814Z,17.12
2022-10-09T19:03:50.671Z,17.07
2022-10-09T19:06:18.427Z,17.05
2022-10-09T19:08:45.390Z,16.99
2022-10-09T19:11:14.487Z,16.94
2022-10-09T19:13:42.413Z,16.91
2022-10-09T19:16:13.381Z,16.88
2022-10-09T19:18:40.302Z,16.88
2022-10-09T19:21:07.053Z,16.86
2022-10-09T19:23:33.737Z,16.85
2022-10-09T19:26:00.309Z,16.86
2022-10-09T19:28:33.089Z,16.83
2022-10-09T19:31:02.464Z,16.80
2022-10-09T19:33:29.162Z,16.77
2022-10-09T19:35:57.787Z,16.73
2022-10-09T19:38:25.362Z,16.68
2022-10-09T19:40:52.030Z,16.64
2022-10-09T19:43:19.930Z,16.58
2022-10-09T19:46:00.797Z,16.52
2022-10-09T19:48:27.284Z,16.48
2022-10-09T19:50:53.712Z,16.43
2022-10-09T19:53:20.169Z,16.39
2022-10-09T19:55:46.782Z,16.37
2022-10-09T19:58:13.236Z,16.34
2022-10-09T20:00:44.211Z,16.30
2022-10-09T20:03:10.786Z,16.30
2022-10-09T20:05:38.857Z,16.27
2022-10-09T20:08:05.851Z,16.24
2022-10-09T20:10:35.773Z,16.20
2022-10-09T20:13:02.715Z,16.18
2022-10-09T20:15:29.242Z,16.14
2022-10-09T20:17:55.803Z,16.10
2022-10-09T20:20:22.313Z,16.05
2022-10-09T20:22:49.025Z,16.03
2022-10-09T20:25:19.662Z,16.00
2022-10-09T20:27:46.154Z,15.98
2022-10-09T20:30:13.142Z,15.96
2022-10-09T20:32:39.597Z,15.93
2022-10-09T20:35:10.136Z,15.91
2022-10-09T20:37:36.632Z,15.89
2022-10-09T20:40:03.337Z,15.89
2022-10-09T20:42:30.942Z,15.88
2022-10-09T20:45:01.622Z,15.87
2022-10-09T20:47:28.111Z,15.88
2022-10-09T20:49:54.573Z,15.88
2022-10-09T20:52:21.199Z,15.89
2022-10-09T20:54:48.702Z,15.88
2022-10-09T20:57:15.173Z,15.89
2022-10-09T20:59:41.733Z,15.87
2022-10-09T21:02:08.300Z,15.83
2022-10-09T21:04:35.580Z,15.80
2022-10-09T21:07:02.064Z,15.77
2022-10-09T21:09:32.978Z,15.75
2022-10-09T21:11:59.796Z,15.73
2022-10-09T21:14:27.636Z,15.68
2022-10-09T21:16:54.094Z,15.64
2022-10-09T21:19:20.632Z,15.62
2022-10-09T21:21:50.844Z,15.57
2022-10-09T21:24:21.759Z,15.53
2022-10-09T21:26:48.338Z,15.50
2022-10-09T21:29:14.838Z,15.48
2022-10-09T21:31:42.105Z,15.46
2022-10-09T21:34:13.051Z,15.44
2022-10-09T21:37:20.468Z,15.40
2022-10-09T21:39:33.624Z,15.35
2022-10-09T21:42:00.081Z,15.32
2022-10-09T21:44:28.640Z,15.30
2022-10-09T21:46:55.113Z,15.26
2022-10-09T21:49:24.059Z,15.25
2022-10-09T21:51:50.790Z,15.22
2022-10-09T21:54:17.954Z,15.22
2022-10-09T21:56:44.486Z,15.22
2022-10-09T21:59:11.254Z,15.23
2022-10-09T22:01:38.452Z,15.26
2022-10-09T22:04:09.280Z,15.29
2022-10-09T22:06:35.757Z,15.30
2022-10-09T22:09:02.307Z,15.30
2022-10-09T22:11:28.810Z,15.30
2022-10-09T22:13:59.897Z,15.30
2022-10-09T22:16:26.490Z,15.30
2022-10-09T22:18:53.468Z,15.31
2022-10-09T22:21:19.986Z,15.31
2022-10-09T22:23:50.083Z,15.31
2022-10-09T22:26:19.757Z,15.31
2022-10-09T22:28:47.355Z,15.30
2022-10-09T22:31:23.816Z,15.29
2022-10-09T22:34:01.581Z,15.26
2022-10-09T22:36:30.666Z,15.26
2022-10-09T22:38:58.830Z,15.24
2022-10-09T22:41:27.209Z,15.23
2022-10-09T22:43:57.454Z,15.21
2022-10-09T22:46:30.749Z,15.20
2022-10-09T22:48:57.985Z,15.21
2022-10-09T22:51:26.013Z,15.20
2022-10-09T22:53:58.533Z,15.18
2022-10-09T22:56:32.367Z,15.17
2022-10-09T22:58:59.091Z,15.17
2022-10-09T23:01:41.829Z,15.14
2022-10-09T23:04:14.563Z,15.09
2022-10-09T23:06:42.195Z,15.06
2022-10-09T23:09:12.108Z,15.02
2022-10-09T23:11:38.607Z,15.00
2022-10-09T23:14:11.283Z,14.99
2022-10-09T23:16:38.226Z,14.98
2022-10-09T23:19:07.046Z,14.97
2022-10-09T23:21:37.840Z,14.96
2022-10-09T23:24:08.677Z,14.93
2022-10-09T23:26:36.922Z,14.93
2022-10-09T23:29:08.981Z,14.91
2022-10-09T23:31:36.441Z,14.91
2022-10-09T23:34:05.360Z,14.90
2022-10-09T23:36:32.148Z,14.88
2022-10-09T23:39:01.097Z,14.87
2022-10-09T23:41:28.753Z,14.87
2022-10-09T23:43:56.577Z,14.86
2022-10-09T23:46:29.344Z,14.86
2022-10-09T23:48:55.986Z,14.86
2022-10-09T23:51:24.227Z,14.86
2022-10-09T23:53:55.008Z,14.84
2022-10-09T23:56:27.853Z,14.83
2022-10-09T23:58:55.655Z,14.81
